Time;durP1;ratioP1;P1;durP2;ratioP2;P2;SDS_P1;SDS_P2;PMS_P1;PMS_P2;Temp;Humidity;BMP_temperature;BMP_pressure;BME280_temperature;BME280_humidity;BME280_pressure;Samples;Min_cycle;Max_cycle;Signal;HPM_P1;HPM_P2
2022/07/23 00:00:32;;;;;;;16.90;8.30;;;;;;;20.36;61.91;100323.41;109729;1271;23047;-56
2022/07/23 00:03:08;;;;;;;15.70;7.80;;;;;;;20.27;62.19;100323.84;109735;1273;22406;-52
2022/07/23 00:05:39;;;;;;;16.70;7.90;;;;;;;20.20;62.19;100323.19;109780;1271;22516;-55
2022/07/23 00:08:11;;;;;;;15.70;8.20;;;;;;;20.17;62.27;100323.32;109738;1271;22435;-54
2022/07/23 00:10:42;;;;;;;16.20;7.60;;;;;;;20.15;62.49;100322.84;109783;1271;22524;-53
2022/07/23 00:13:13;;;;;;;16.60;8.40;;;;;;;20.06;62.57;100328.67;109750;1271;23244;-54
2022/07/23 00:15:44;;;;;;;16.70;8.40;;;;;;;19.99;62.82;100334.67;109743;1271;22449;-53
2022/07/23 00:18:17;;;;;;;17.30;8.50;;;;;;;19.91;63.10;100335.85;109752;1271;22451;-54
2022/07/23 00:20:49;;;;;;;20.30;9.20;;;;;;;19.83;63.26;100333.01;109762;1271;23137;-51
2022/07/23 00:23:21;;;;;;;17.40;9.00;;;;;;;19.77;63.42;100329.24;109761;1271;22535;-53
2022/07/23 00:25:52;;;;;;;15.90;8.20;;;;;;;19.73;63.61;100322.42;109793;1271;23153;-51
2022/07/23 00:28:23;;;;;;;15.90;8.10;;;;;;;19.67;63.64;100326.21;109754;1271;23359;-56
2022/07/23 00:30:54;;;;;;;21.40;8.90;;;;;;;19.61;63.75;100326.43;109760;1271;22411;-52
2022/07/23 00:33:26;;;;;;;17.00;7.60;;;;;;;19.54;63.97;100329.95;109770;1271;23197;-55
2022/07/23 00:35:57;;;;;;;14.20;7.60;;;;;;;19.48;64.02;100334.05;109775;1271;22418;-54
2022/07/23 00:38:28;;;;;;;19.90;8.60;;;;;;;19.44;64.08;100328.20;109757;1271;22450;-54
2022/07/23 00:40:59;;;;;;;20.00;8.80;;;;;;;19.38;64.16;100332.96;109782;1271;23098;-55
2022/07/23 00:43:30;;;;;;;15.90;7.70;;;;;;;19.35;64.39;100336.77;109744;1271;22460;-55
2022/07/23 00:46:02;;;;;;;16.10;7.60;;;;;;;19.30;64.54;100335.45;109734;1271;23057;-54
2022/07/23 00:48:33;;;;;;;17.40;8.40;;;;;;;19.26;64.36;100335.33;109779;1271;22484;-55
2022/07/23 00:51:05;;;;;;;17.60;9.10;;;;;;;19.26;64.44;100338.38;109747;1271;22492;-53
2022/07/23 00:53:37;;;;;;;18.00;8.40;;;;;;;19.24;64.71;100334.39;109738;1271;22395;-54
2022/07/23 00:56:10;;;;;;;19.70;8.60;;;;;;;19.22;64.83;100338.41;109753;1271;22404;-55
2022/07/23 00:58:43;;;;;;;19.90;8.90;;;;;;;19.20;64.97;100332.29;109762;1271;23079;-51
2022/07/23 01:01:16;;;;;;;17.70;9.00;;;;;;;19.16;65.20;100336.88;109756;1271;22381;-54
2022/07/23 01:03:48;;;;;;;17.00;9.20;;;;;;;19.12;65.41;100341.45;109771;1271;22478;-55
2022/07/23 01:06:19;;;;;;;18.20;10.60;;;;;;;19.09;65.85;100344.66;109745;1271;22413;-53
2022/07/23 01:08:50;;;;;;;20.20;9.80;;;;;;;19.05;66.16;100346.75;109746;1271;22276;-52
2022/07/23 01:11:24;;;;;;;17.00;8.80;;;;;;;19.02;66.34;100351.06;109751;1271;22446;-56
2022/07/23 01:13:55;;;;;;;17.40;9.00;;;;;;;18.99;66.31;100356.04;109787;1271;22486;-51
2022/07/23 01:16:26;;;;;;;21.90;8.10;;;;;;;18.96;66.47;100348.31;109776;1271;23280;-56
2022/07/23 01:18:58;;;;;;;16.90;8.90;;;;;;;18.94;66.40;100349.94;109773;1271;22407;-56
2022/07/23 01:21:30;;;;;;;14.70;7.60;;;;;;;18.96;66.63;100340.55;109785;1271;22430;-54
2022/07/23 01:24:01;;;;;;;20.00;9.50;;;;;;;18.94;66.53;100337.17;109749;1271;22427;-54
2022/07/23 01:26:33;;;;;;;17.10;9.30;;;;;;;18.91;66.72;100339.59;109749;1271;22227;-55
2022/07/23 01:29:04;;;;;;;15.10;8.20;;;;;;;18.83;66.93;100342.83;109759;1271;22443;-52
2022/07/23 01:31:37;;;;;;;17.70;9.70;;;;;;;18.79;67.09;100339.54;109788;1271;23205;-53
2022/07/23 01:34:09;;;;;;;17.40;8.70;;;;;;;18.76;67.29;100337.00;109740;1271;22523;-51
2022/07/23 01:36:40;;;;;;;17.30;8.90;;;;;;;18.74;67.23;100336.63;109762;1271;23069;-51
2022/07/23 01:39:12;;;;;;;19.70;8.50;;;;;;;18.72;67.23;100334.59;109750;1271;22434;-53
2022/07/23 01:41:43;;;;;;;17.40;9.00;;;;;;;18.69;67.34;100335.03;109741;1271;22440;-51
2022/07/23 01:44:14;;;;;;;15.20;7.80;;;;;;;18.66;67.40;100333.64;109751;1271;22452;-55
2022/07/23 01:46:45;;;;;;;17.60;8.50;;;;;;;18.67;67.29;100326.83;109771;1271;22423;-51
2022/07/23 01:49:16;;;;;;;17.20;8.50;;;;;;;18.69;67.39;100324.59;109751;1271;23246;-51
2022/07/23 01:52:00;;;;;;;19.30;8.20;;;;;;;18.66;67.61;100321.45;109764;1271;23478;-54
2022/07/23 01:54:32;;;;;;;16.00;8.70;;;;;;;18.63;67.87;100330.70;109774;1271;23203;-54
2022/07/23 01:57:03;;;;;;;18.80;9.20;;;;;;;18.58;67.88;100326.93;109742;1271;23148;-54
2022/07/23 01:59:35;;;;;;;19.70;9.30;;;;;;;18.54;68.12;100331.27;109761;1271;23204;-55
2022/07/23 02:02:06;;;;;;;17.90;8.90;;;;;;;18.49;68.25;100331.73;109756;1271;22673;-56
2022/07/23 02:04:37;;;;;;;26.20;11.10;;;;;;;18.43;68.49;100333.02;109786;1271;22334;-52
2022/07/23 02:07:09;;;;;;;22.10;9.90;;;;;;;18.38;68.68;100329.00;109759;1271;22495;-53
2022/07/23 02:09:41;;;;;;;36.90;10.50;;;;;;;18.29;69.12;100330.27;109763;1271;22446;-54
2022/07/23 02:12:12;;;;;;;33.40;10.70;;;;;;;18.25;69.08;100324.25;109749;1271;23078;-51
2022/07/23 02:14:43;;;;;;;22.10;9.00;;;;;;;18.24;69.16;100323.82;109774;1271;23146;-55
2022/07/23 02:17:14;;;;;;;21.10;10.50;;;;;;;18.24;69.37;100326.17;109739;1271;22447;-53
2022/07/23 02:19:45;;;;;;;26.30;10.60;;;;;;;18.21;69.50;100326.05;109790;1271;22434;-54
2022/07/23 02:22:18;;;;;;;22.40;10.00;;;;;;;18.21;69.60;100324.40;109745;1271;22448;-52
2022/07/23 02:24:50;;;;;;;21.10;9.80;;;;;;;18.19;69.27;100312.05;109738;1271;22494;-51
2022/07/23 02:27:21;;;;;;;25.30;10.30;;;;;;;18.20;69.48;100314.10;109783;1271;22501;-51
2022/07/23 02:29:52;;;;;;;23.40;9.50;;;;;;;18.15;69.74;100318.52;109708;1271;23073;-53
2022/07/23 02:32:24;;;;;;;21.00;9.10;;;;;;;18.11;69.71;100316.86;109744;1271;22463;-54
2022/07/23 02:34:57;;;;;;;20.30;10.40;;;;;;;18.09;69.68;100314.41;109782;1271;22515;-50
2022/07/23 02:37:28;;;;;;;21.60;9.50;;;;;;;18.07;69.85;100318.18;109744;1271;22459;-56
2022/07/23 02:39:59;;;;;;;21.70;9.60;;;;;;;18.06;69.82;100315.94;109778;1271;22440;-55
2022/07/23 02:42:30;;;;;;;18.90;8.80;;;;;;;18.06;69.86;100317.02;109774;1271;22448;-50
2022/07/23 02:45:01;;;;;;;16.40;8.20;;;;;;;18.04;70.03;100310.35;109735;1271;23139;-55
2022/07/23 02:47:32;;;;;;;21.00;9.30;;;;;;;18.03;70.11;100297.68;109751;1271;23136;-54
2022/07/23 02:50:06;;;;;;;19.60;8.90;;;;;;;18.00;69.98;100302.52;109767;1271;22409;-55
2022/07/23 02:52:38;;;;;;;19.30;8.20;;;;;;;17.99;70.27;100304.09;109755;1271;22474;-52
2022/07/23 02:55:10;;;;;;;19.40;9.70;;;;;;;17.99;70.09;100298.24;109750;1271;22513;-54
2022/07/23 02:57:43;;;;;;;19.00;10.40;;;;;;;18.01;70.37;100297.09;109777;1271;22470;-52
2022/07/23 03:00:15;;;;;;;22.90;10.70;;;;;;;18.00;70.69;100292.88;109764;1271;22437;-54
2022/07/23 03:02:46;;;;;;;21.20;10.90;;;;;;;17.99;70.78;100296.48;109746;1271;22261;-53
2022/07/23 03:05:17;;;;;;;19.70;9.50;;;;;;;17.99;70.76;100296.54;109762;1271;22414;-53
2022/07/23 03:07:48;;;;;;;23.10;10.00;;;;;;;17.98;70.77;100295.70;109763;1271;22373;-52
2022/07/23 03:10:20;;;;;;;23.80;10.00;;;;;;;17.97;70.90;100300.36;109739;1271;22966;-53
2022/07/23 03:12:52;;;;;;;23.90;8.90;;;;;;;17.96;71.08;100300.16;109762;1271;22954;-54
2022/07/23 03:15:23;;;;;;;19.60;9.80;;;;;;;17.96;71.12;100296.16;109772;1271;22439;-55
2022/07/23 03:17:54;;;;;;;23.10;9.90;;;;;;;17.95;71.21;100300.22;109748;1269;23182;-52
2022/07/23 03:20:25;;;;;;;26.40;10.90;;;;;;;17.94;71.38;100306.71;109760;1271;22400;-53
2022/07/23 03:22:57;;;;;;;23.70;11.30;;;;;;;17.92;71.58;100311.04;109779;1271;22456;-50
2022/07/23 03:25:31;;;;;;;21.10;11.20;;;;;;;17.92;71.64;100319.63;109727;1271;23256;-53
2022/07/23 03:28:03;;;;;;;20.10;10.70;;;;;;;17.94;71.62;100318.84;109726;1271;22260;-54
2022/07/23 03:30:35;;;;;;;21.90;11.30;;;;;;;17.97;71.85;100311.41;109752;1263;22452;-63
2022/07/23 03:33:06;;;;;;;21.70;9.40;;;;;;;17.98;71.73;100312.83;109777;1271;22458;-63
2022/07/23 03:35:38;;;;;;;21.00;11.20;;;;;;;18.00;72.16;100307.52;109772;1271;23065;-63
2022/07/23 03:38:09;;;;;;;19.10;9.60;;;;;;;18.00;72.16;100301.15;109818;1270;22352;-64
2022/07/23 03:40:41;;;;;;;21.70;9.70;;;;;;;18.04;72.41;100303.02;109825;1270;23087;-64
2022/07/23 03:43:13;;;;;;;22.10;10.40;;;;;;;18.06;72.58;100304.70;109843;1270;22411;-64
2022/07/23 03:45:44;;;;;;;19.50;10.00;;;;;;;18.08;72.70;100312.93;109808;1271;22497;-63
2022/07/23 03:48:16;;;;;;;20.90;10.00;;;;;;;18.11;72.96;100309.27;109775;1271;23131;-64
2022/07/23 03:50:47;;;;;;;18.30;9.70;;;;;;;18.12;73.12;100314.95;109828;1270;22413;-63
2022/07/23 03:53:18;;;;;;;18.90;9.60;;;;;;;18.16;73.05;100314.80;109833;1270;22427;-63
2022/07/23 03:55:49;;;;;;;21.70;11.80;;;;;;;18.20;72.99;100318.77;109817;1270;22435;-63
2022/07/23 03:58:21;;;;;;;19.70;10.40;;;;;;;18.23;73.13;100316.43;109830;1270;22404;-63
2022/07/23 04:00:52;;;;;;;19.60;10.70;;;;;;;18.27;73.43;100314.95;109826;1270;22378;-63
2022/07/23 04:03:23;;;;;;;20.30;10.60;;;;;;;18.33;73.51;100314.61;109846;1269;22398;-64
2022/07/23 04:05:55;;;;;;;19.80;10.50;;;;;;;18.37;73.54;100321.20;109817;1270;22383;-63
2022/07/23 04:08:27;;;;;;;20.40;10.40;;;;;;;18.40;73.62;100320.18;109851;1270;22367;-63
2022/07/23 04:10:59;;;;;;;22.40;11.50;;;;;;;18.47;73.80;100320.39;109857;1270;23093;-64
2022/07/23 04:13:32;;;;;;;22.30;11.50;;;;;;;18.55;73.65;100321.38;109812;1270;22457;-64
2022/07/23 04:16:03;;;;;;;23.70;11.80;;;;;;;18.61;73.67;100318.33;109816;1271;22390;-64
2022/07/23 04:18:35;;;;;;;20.00;11.80;;;;;;;18.68;73.53;100310.48;109815;1271;22405;-64
2022/07/23 04:21:06;;;;;;;23.90;11.60;;;;;;;18.76;73.61;100300.14;109820;1270;22459;-64
2022/07/23 04:23:40;;;;;;;22.90;11.60;;;;;;;18.83;73.81;100299.63;109817;1270;22220;-64
2022/07/23 04:26:11;;;;;;;25.20;12.30;;;;;;;18.88;73.73;100299.10;109825;1271;22432;-63
2022/07/23 04:28:43;;;;;;;25.30;11.80;;;;;;;18.95;73.67;100304.91;109860;1270;22427;-64
2022/07/23 04:31:14;;;;;;;23.80;11.80;;;;;;;19.02;73.28;100296.59;109834;1271;23103;-63
2022/07/23 04:33:45;;;;;;;21.60;12.30;;;;;;;19.10;73.45;100294.29;109834;1271;23239;-64
2022/07/23 04:36:16;;;;;;;24.10;12.50;;;;;;;19.17;73.32;100292.30;109842;1270;22480;-63
2022/07/23 04:38:47;;;;;;;21.30;11.20;;;;;;;19.26;73.40;100286.39;109836;1271;22569;-64
2022/07/23 04:41:18;;;;;;;21.70;10.80;;;;;;;19.33;73.38;100281.05;109815;1271;22428;-64
2022/07/23 04:43:50;;;;;;;24.80;11.90;;;;;;;19.42;73.81;100273.95;109839;1271;22228;-63
2022/07/23 04:46:21;;;;;;;21.90;12.90;;;;;;;19.51;73.95;100271.87;109834;1271;22391;-63
2022/07/23 04:48:53;;;;;;;23.90;11.90;;;;;;;19.60;73.78;100271.14;109835;1271;22402;-64
2022/07/23 04:51:24;;;;;;;22.40;11.30;;;;;;;19.68;73.65;100263.99;109818;1271;22421;-64
2022/07/23 04:53:56;;;;;;;18.50;10.20;;;;;;;19.77;73.64;100264.98;109819;1271;22417;-64
2022/07/23 04:56:27;;;;;;;18.90;10.10;;;;;;;19.84;73.42;100261.89;109789;1271;22411;-64
2022/07/23 04:58:58;;;;;;;23.90;10.70;;;;;;;19.93;73.20;100257.20;109815;1271;22189;-64
2022/07/23 05:01:30;;;;;;;21.10;10.60;;;;;;;20.03;73.11;100250.52;109711;1273;23611;-64
2022/07/23 05:04:01;;;;;;;19.60;9.90;;;;;;;20.15;72.95;100249.01;109825;1270;23133;-64
2022/07/23 05:06:32;;;;;;;20.90;10.20;;;;;;;20.27;73.10;100245.64;109805;1271;22419;-64
2022/07/23 05:09:03;;;;;;;20.30;9.70;;;;;;;20.40;72.83;100241.49;109829;1270;22519;-64
2022/07/23 05:11:34;;;;;;;22.70;10.40;;;;;;;20.51;72.82;100239.71;109831;1270;22420;-63
2022/07/23 05:14:06;;;;;;;19.90;10.10;;;;;;;20.62;72.72;100241.33;109821;1271;23186;-64
2022/07/23 05:16:37;;;;;;;20.20;9.30;;;;;;;20.70;72.24;100232.04;109817;1271;22452;-64
2022/07/23 05:19:09;;;;;;;17.10;8.70;;;;;;;20.80;72.07;100224.89;109822;1271;22420;-64
2022/07/23 05:21:40;;;;;;;21.00;9.20;;;;;;;20.88;72.09;100217.64;109814;1270;22435;-64
2022/07/23 05:24:11;;;;;;;18.50;8.10;;;;;;;20.97;71.99;100215.61;109798;1271;22255;-64
2022/07/23 05:26:43;;;;;;;17.10;8.50;;;;;;;21.05;71.73;100208.80;109803;1271;22433;-64
2022/07/23 05:29:14;;;;;;;18.30;8.40;;;;;;;21.14;71.39;100205.06;109797;1270;22408;-64
2022/07/23 05:31:45;;;;;;;14.70;7.00;;;;;;;21.24;70.68;100197.02;109820;1270;22972;-64
2022/07/23 05:34:16;;;;;;;17.50;7.40;;;;;;;21.34;70.34;100196.57;109799;1271;22415;-64
2022/07/23 05:36:48;;;;;;;18.80;8.10;;;;;;;21.40;70.33;100188.02;109816;1271;22836;-64
2022/07/23 05:39:20;;;;;;;18.20;8.90;;;;;;;21.49;70.07;100186.35;109785;1271;22569;-64
2022/07/23 05:41:52;;;;;;;17.10;7.60;;;;;;;21.55;70.06;100183.30;109821;1271;22545;-64
2022/07/23 05:44:23;;;;;;;16.70;7.70;;;;;;;21.63;69.92;100179.98;109821;1270;22397;-64
2022/07/23 05:46:54;;;;;;;18.40;8.00;;;;;;;21.69;69.83;100181.35;109854;1271;22423;-64
2022/07/23 05:49:26;;;;;;;16.20;8.70;;;;;;;21.79;69.44;100182.92;109796;1271;22402;-64
2022/07/23 05:51:57;;;;;;;15.10;7.10;;;;;;;21.85;69.27;100175.09;109814;1271;22471;-64
2022/07/23 05:54:28;;;;;;;17.30;8.50;;;;;;;21.94;68.88;100171.20;109823;1270;22447;-64
2022/07/23 05:56:59;;;;;;;15.80;7.40;;;;;;;22.00;68.79;100172.77;109799;1270;22540;-64
2022/07/23 05:59:31;;;;;;;16.30;7.10;;;;;;;22.07;68.48;100174.60;109827;1270;22391;-64
2022/07/23 06:02:03;;;;;;;15.60;7.50;;;;;;;22.13;68.00;100176.71;109807;1270;23299;-64
2022/07/23 06:04:35;;;;;;;16.80;7.50;;;;;;;22.20;67.96;100170.75;109834;1270;23270;-64
2022/07/23 06:07:06;;;;;;;15.20;7.50;;;;;;;22.26;67.75;100169.34;109828;1270;23101;-64
2022/07/23 06:09:37;;;;;;;13.10;5.80;;;;;;;22.32;67.35;100169.67;109792;1270;22447;-64
2022/07/23 06:12:10;;;;;;;12.40;6.00;;;;;;;22.39;67.14;100175.77;109785;1270;22460;-64
2022/07/23 06:14:41;;;;;;;17.70;6.50;;;;;;;22.47;66.89;100188.46;109808;1270;22430;-64
2022/07/23 06:17:12;;;;;;;13.30;6.40;;;;;;;22.53;66.68;100193.05;109802;1270;22408;-64
2022/07/23 06:19:43;;;;;;;15.70;6.90;;;;;;;22.60;66.45;100198.55;109849;1270;22400;-65
2022/07/23 06:22:14;;;;;;;13.00;6.50;;;;;;;22.67;66.27;100200.39;109791;1270;22421;-64
2022/07/23 06:24:46;;;;;;;15.30;7.40;;;;;;;22.75;66.14;100203.92;109805;1270;22399;-65
2022/07/23 06:27:17;;;;;;;13.50;6.70;;;;;;;22.83;65.76;100201.52;109801;1270;22390;-64
2022/07/23 06:29:48;;;;;;;16.30;7.20;;;;;;;22.87;65.32;100209.02;109801;1270;22237;-65
2022/07/23 06:32:20;;;;;;;16.40;7.00;;;;;;;22.93;65.29;100213.23;109792;1270;22431;-64
2022/07/23 06:34:51;;;;;;;14.20;6.50;;;;;;;22.97;65.19;100203.89;109854;1270;22414;-65
2022/07/23 06:37:22;;;;;;;12.50;6.10;;;;;;;23.07;64.90;100203.53;109791;1270;22461;-65
2022/07/23 06:39:53;;;;;;;12.60;6.50;;;;;;;23.10;64.60;100198.90;109840;1270;22405;-65
2022/07/23 06:42:25;;;;;;;13.60;6.60;;;;;;;23.17;64.53;100196.33;109827;1270;22554;-65
2022/07/23 06:44:58;;;;;;;13.30;6.70;;;;;;;23.24;64.33;100194.44;109803;1270;22443;-65
2022/07/23 06:47:29;;;;;;;12.50;6.60;;;;;;;23.31;64.44;100192.81;109793;1270;22406;-65
2022/07/23 06:50:00;;;;;;;13.90;6.80;;;;;;;23.41;64.07;100188.29;109791;1270;22425;-64
2022/07/23 06:52:32;;;;;;;17.40;7.10;;;;;;;23.46;64.05;100182.13;109832;1270;23164;-64
2022/07/23 06:55:04;;;;;;;16.20;7.40;;;;;;;23.55;63.97;100180.48;109788;1270;22387;-65
2022/07/23 06:57:35;;;;;;;14.30;7.00;;;;;;;23.60;63.62;100176.34;109818;1270;23286;-65
2022/07/23 07:00:08;;;;;;;11.90;5.90;;;;;;;23.69;63.41;100169.88;109783;1270;22476;-65
2022/07/23 07:02:39;;;;;;;13.10;6.80;;;;;;;23.77;63.09;100169.21;109808;1270;22474;-65
2022/07/23 07:05:11;;;;;;;17.70;7.10;;;;;;;23.87;63.26;100162.52;109810;1270;22425;-65
2022/07/23 07:07:42;;;;;;;14.20;6.30;;;;;;;23.99;63.09;100164.98;109826;1270;22419;-65
2022/07/23 07:10:16;;;;;;;16.40;6.10;;;;;;;24.11;62.28;100162.39;109832;1270;22408;-65
2022/07/23 07:12:47;;;;;;;14.80;6.50;;;;;;;24.19;62.18;100166.49;109818;1270;23060;-65
2022/07/23 07:15:18;;;;;;;13.60;7.00;;;;;;;24.34;62.42;100167.89;109816;1270;22855;-65
2022/07/23 07:17:49;;;;;;;13.80;6.30;;;;;;;24.47;62.04;100167.13;109804;1270;22419;-65
2022/07/23 07:20:21;;;;;;;16.40;6.60;;;;;;;24.58;61.92;100168.60;109824;1270;22452;-65
2022/07/23 07:22:52;;;;;;;13.70;6.50;;;;;;;24.71;61.78;100174.52;109843;1270;23214;-65
2022/07/23 07:25:23;;;;;;;14.60;6.60;;;;;;;24.85;61.58;100164.89;109801;1270;22477;-65
2022/07/23 07:27:54;;;;;;;13.30;6.00;;;;;;;24.98;61.13;100163.83;109817;1270;22372;-65
2022/07/23 07:30:26;;;;;;;15.90;7.20;;;;;;;25.10;60.66;100164.04;109841;1270;22455;-65
2022/07/23 07:32:58;;;;;;;11.50;6.20;;;;;;;25.23;60.40;100159.29;109829;1270;22424;-65
2022/07/23 07:35:31;;;;;;;11.40;6.00;;;;;;;25.38;59.94;100158.08;109823;1270;22475;-65
2022/07/23 07:38:02;;;;;;;13.40;6.10;;;;;;;25.52;59.52;100150.04;109814;1270;22416;-65
2022/07/23 07:40:34;;;;;;;14.30;6.70;;;;;;;25.70;59.29;100149.10;109853;1270;22402;-65
2022/07/23 07:43:05;;;;;;;13.50;6.20;;;;;;;25.85;58.61;100152.22;109813;1270;23135;-65
2022/07/23 07:45:37;;;;;;;14.10;5.60;;;;;;;25.96;58.15;100149.13;109821;1270;22419;-65
2022/07/23 07:48:10;;;;;;;12.60;6.00;;;;;;;26.05;57.79;100149.79;109826;1270;22462;-65
2022/07/23 07:50:41;;;;;;;14.80;6.50;;;;;;;26.13;57.45;100144.91;109814;1270;22392;-66
2022/07/23 07:53:12;;;;;;;10.80;5.10;;;;;;;26.22;57.14;100145.38;109810;1270;22438;-66
2022/07/23 07:55:43;;;;;;;13.30;5.90;;;;;;;26.32;56.64;100147.27;109820;1270;22412;-66
2022/07/23 07:58:15;;;;;;;13.90;5.60;;;;;;;26.39;56.13;100138.96;109822;1270;22440;-66
2022/07/23 08:00:46;;;;;;;13.10;6.00;;;;;;;26.45;56.10;100135.60;109854;1270;22404;-66
2022/07/23 08:03:17;;;;;;;12.90;6.00;;;;;;;26.54;55.53;100132.59;109792;1270;23264;-66
2022/07/23 08:05:49;;;;;;;11.90;5.90;;;;;;;26.61;55.01;100131.56;109807;1270;22383;-66
2022/07/23 08:08:20;;;;;;;11.90;5.60;;;;;;;26.65;54.80;100131.06;109811;1270;22414;-66
2022/07/23 08:10:52;;;;;;;11.20;5.60;;;;;;;26.69;54.56;100130.08;109835;1270;22424;-66
2022/07/23 08:13:23;;;;;;;13.70;6.50;;;;;;;26.75;54.23;100133.30;109812;1270;22450;-66
2022/07/23 08:15:54;;;;;;;11.80;5.90;;;;;;;26.79;54.16;100132.02;109824;1269;22505;-66
2022/07/23 08:18:26;;;;;;;12.40;5.80;;;;;;;26.83;54.36;100132.53;109836;1270;22512;-66
2022/07/23 08:20:58;;;;;;;15.80;6.00;;;;;;;26.88;54.23;100138.93;109846;1270;22824;-66
2022/07/23 08:23:29;;;;;;;12.50;6.30;;;;;;;26.90;53.54;100140.11;109821;1270;22582;-66
2022/07/23 08:26:02;;;;;;;13.20;6.20;;;;;;;26.92;53.68;100131.67;109852;1270;22985;-66
2022/07/23 08:28:33;;;;;;;15.30;6.50;;;;;;;26.98;53.74;100136.14;109833;1270;22437;-66
2022/07/23 08:31:05;;;;;;;12.70;5.80;;;;;;;27.08;53.72;100137.50;109821;1270;22483;-66
2022/07/23 08:33:38;;;;;;;11.80;5.70;;;;;;;27.19;53.67;100140.52;109811;1270;23385;-66
2022/07/23 08:36:11;;;;;;;11.80;6.20;;;;;;;27.30;53.49;100140.64;109816;1270;22400;-66
2022/07/23 08:38:44;;;;;;;12.10;6.00;;;;;;;27.39;53.02;100134.41;109763;1271;22404;-66
2022/07/23 08:41:17;;;;;;;13.70;6.50;;;;;;;27.48;52.74;100134.63;109840;1270;22427;-66
2022/07/23 08:43:48;;;;;;;13.00;6.10;;;;;;;27.59;52.87;100133.60;109850;1270;23139;-66
2022/07/23 08:46:23;;;;;;;12.50;6.40;;;;;;;27.72;52.57;100131.36;109820;1270;22471;-66
2022/07/23 08:48:55;;;;;;;13.70;6.10;;;;;;;27.84;52.12;100128.52;109852;1270;23094;-66
2022/07/23 08:51:28;;;;;;;12.70;6.00;;;;;;;27.95;52.06;100121.34;109815;1269;23169;-66
2022/07/23 08:54:01;;;;;;;13.20;6.80;;;;;;;28.07;51.68;100118.05;109800;1270;22506;-66
2022/07/23 08:56:33;;;;;;;12.10;6.20;;;;;;;28.16;51.53;100108.66;109797;1271;22423;-66
2022/07/23 08:59:04;;;;;;;12.80;6.10;;;;;;;28.25;51.12;100110.77;109845;1270;22422;-66
2022/07/23 09:01:37;;;;;;;12.60;6.50;;;;;;;28.35;50.69;100111.09;109865;1270;23072;-66
2022/07/23 09:04:10;;;;;;;12.80;6.50;;;;;;;28.42;50.83;100112.75;109839;1270;22431;-66
2022/07/23 09:06:45;;;;;;;12.60;5.60;;;;;;;28.53;50.50;100113.85;109810;1270;23346;-66
2022/07/23 09:09:29;;;;;;;16.20;6.60;;;;;;;28.60;49.91;100119.14;109827;1270;23002;-66
2022/07/23 09:12:10;;;;;;;13.40;6.10;;;;;;;28.67;49.84;100120.75;109829;1270;22480;-66
2022/07/23 09:14:44;;;;;;;15.40;6.80;;;;;;;28.74;49.65;100118.01;109848;1270;22429;-66
2022/07/23 09:17:18;;;;;;;13.80;7.40;;;;;;;28.82;49.44;100120.83;109822;1270;23140;-66
2022/07/23 09:19:49;;;;;;;15.50;7.10;;;;;;;28.94;49.43;100113.64;109838;1270;22401;-66
2022/07/23 09:22:22;;;;;;;13.20;7.00;;;;;;;29.07;49.02;100115.69;109817;1270;22399;-67
2022/07/23 09:25:13;;;;;;;12.60;6.90;;;;;;;29.16;49.24;100107.23;109833;1269;22384;-67
2022/07/23 09:27:53;;;;;;;11.80;6.00;;;;;;;29.28;48.58;100109.48;109832;1270;22369;-67
2022/07/23 09:30:28;;;;;;;14.90;6.40;;;;;;;29.39;48.48;100104.92;109843;1270;22419;-67
2022/07/23 09:33:12;;;;;;;15.10;6.80;;;;;;;29.49;48.06;100106.04;109834;1269;22434;-67
2022/07/23 09:35:52;;;;;;;11.70;6.70;;;;;;;29.57;47.46;100109.43;109825;1270;22232;-67
2022/07/23 09:38:25;;;;;;;13.10;6.50;;;;;;;29.66;47.35;100100.23;109836;1270;23144;-67
2022/07/23 09:41:10;;;;;;;13.30;6.50;;;;;;;29.74;47.55;100094.61;109875;1270;22423;-67
2022/07/23 09:43:41;;;;;;;13.20;6.20;;;;;;;29.86;47.37;100086.40;109844;1270;23306;-67
2022/07/23 09:46:24;;;;;;;15.70;6.20;;;;;;;29.94;46.65;100080.77;109833;1268;23261;-67
2022/07/23 09:48:57;;;;;;;14.40;6.30;;;;;;;29.99;46.18;100084.95;109844;1270;22392;-67
2022/07/23 09:51:36;;;;;;;16.70;6.10;;;;;;;30.03;46.23;100087.68;109825;1269;23205;-67
2022/07/23 09:54:21;;;;;;;15.20;6.60;;;;;;;30.08;46.04;100089.48;109825;1270;22217;-67
2022/07/23 09:56:54;;;;;;;14.80;5.80;;;;;;;30.15;45.56;100093.23;109817;1270;22382;-67
2022/07/23 09:59:30;;;;;;;13.40;6.00;;;;;;;30.21;45.06;100093.02;109821;1270;23131;-67
2022/07/23 10:02:04;;;;;;;14.00;4.40;;;;;;;30.24;44.49;100096.66;109804;1270;22563;-68
2022/07/23 10:04:35;;;;;;;16.70;4.50;;;;;;;30.25;43.87;100102.23;109860;1270;23173;-67
2022/07/23 10:07:10;;;;;;;10.80;4.30;;;;;;;30.24;43.52;100116.24;109829;1270;22274;-68
2022/07/23 10:09:44;;;;;;;14.40;6.60;;;;;;;30.18;42.95;100125.05;109842;1269;22313;-67
2022/07/23 10:15:07;;;;;;;14.90;5.90;;;;;;;29.64;43.70;100132.05;109795;1270;22568;-67
2022/07/23 10:17:39;;;;;;;15.30;6.00;;;;;;;29.30;44.06;100127.00;109825;1270;22492;-67
2022/07/23 10:20:13;;;;;;;17.70;6.00;;;;;;;28.96;43.92;100126.59;109823;1269;22436;-67
2022/07/23 10:22:51;;;;;;;14.30;5.20;;;;;;;28.64;44.24;100149.41;109831;1270;23207;-67
2022/07/23 10:25:28;;;;;;;10.80;5.80;;;;;;;28.21;44.79;100139.91;109831;1270;22411;-67
2022/07/23 10:28:23;;;;;;;12.20;5.60;;;;;;;27.94;45.62;100138.48;109802;1270;22426;-67
2022/07/23 10:31:06;;;;;;;11.80;5.30;;;;;;;27.77;45.98;100138.71;109830;1270;22482;-67
2022/07/23 10:33:53;;;;;;;13.70;5.90;;;;;;;27.63;46.02;100138.25;109808;1270;22447;-67
2022/07/23 10:36:33;;;;;;;11.70;4.80;;;;;;;27.50;46.60;100136.13;105682;1270;5434321;-67
2022/07/23 10:39:12;;;;;;;14.90;5.60;;;;;;;27.39;47.54;100136.23;109828;1270;23089;-67
2022/07/23 10:41:44;;;;;;;14.90;5.80;;;;;;;27.27;47.46;100138.59;109799;1270;22396;-67
2022/07/23 10:44:19;;;;;;;11.70;5.40;;;;;;;27.16;47.66;100156.95;109828;1269;22421;-67
2022/07/23 10:49:46;;;;;;;12.80;4.90;;;;;;;26.66;48.69;100168.52;109291;1277;22432;-67
2022/07/23 10:52:24;;;;;;;9.50;4.00;;;;;;;26.41;49.22;100168.90;109310;1277;22910;-67
2022/07/23 10:54:57;;;;;;;8.00;3.70;;;;;;;26.10;49.69;100166.34;109283;1277;22447;-67
2022/07/23 10:57:29;;;;;;;12.90;4.50;;;;;;;25.86;50.48;100163.18;109360;1276;23257;-67
2022/07/23 11:00:33;;;;;;;10.20;4.90;;;;;;;25.71;51.18;100169.02;109323;1277;22416;-67
2022/07/23 11:03:27;;;;;;;14.10;5.10;;;;;;;25.53;52.22;100199.12;109333;1276;23153;-62
2022/07/23 11:05:59;;;;;;;10.80;5.10;;;;;;;25.31;54.30;100241.70;109300;1277;22521;-61
2022/07/23 11:08:31;;;;;;;12.40;6.10;;;;;;;25.05;55.08;100254.33;109308;1277;22652;-64
2022/07/23 11:11:16;;;;;;;17.90;7.70;;;;;;;24.93;55.98;100265.97;109308;1277;22419;-59
2022/07/23 11:13:53;;;;;;;14.80;6.10;;;;;;;24.79;57.25;100258.02;109335;1277;22463;-61
2022/07/23 11:16:47;;;;;;;13.50;6.10;;;;;;;24.60;57.88;100254.23;109287;1277;22479;-62
2022/07/23 11:19:18;;;;;;;12.20;5.50;;;;;;;24.39;59.04;100257.14;109294;1277;22411;-63
2022/07/23 11:21:56;;;;;;;15.90;6.30;;;;;;;24.19;60.11;100256.33;109280;1277;22586;-61
2022/07/23 11:24:27;;;;;;;12.90;6.20;;;;;;;24.01;60.81;100252.92;109302;1277;22469;-62
2022/07/23 11:27:06;;;;;;;17.50;7.20;;;;;;;23.89;61.34;100246.84;109358;1270;22482;-60
2022/07/23 11:29:52;;;;;;;16.80;8.00;;;;;;;23.87;61.84;100230.38;109816;1270;22593;-60
2022/07/23 11:32:42;;;;;;;15.40;6.70;;;;;;;23.90;62.87;100222.85;109823;1268;23079;-63
2022/07/23 11:35:27;;;;;;;19.40;8.20;;;;;;;23.95;63.45;100208.48;109809;1270;22403;-60
2022/07/23 11:38:08;;;;;;;17.20;8.70;;;;;;;23.99;64.01;100172.20;109845;1270;22403;-64